KMGM

Montgomery Regional (Dannelly Field) Airport

Montgomery, Alabama, USA
METAR KMGM 170653Z AUTO 28003KT 10SM CLR 08/08 A3021 RMK AO2 SLP230 T00830078 TSNO
Observed Flight Rules
Dec-17 @ 06:53 UTC (34 minutes ago) Visual Flight Rules
Wind Visibility Clouds
280° at 3 knots 10 miles
  • Clear skies
Temperatures Readings
Current 8°C / 46°F
Dewpoint 8°C / 46°F
Humidity 100%
Altimeter 30.21" Hg
Pressure 1023 hPa
Elevation 63
METAR KMGM 170653Z AUTO 28003KT 10SM CLR 08/08 A3021 RMK AO2 SLP230 T00830078 TSNO
Observed Flight Rules
Dec-17 @ 06:53 UTC
(34 minutes ago)
VFR
Wind Visibility
280° at 3 knots 10 miles
Clouds
  • Clear skies
Temperature Dewpoint
8°C / 46°F 8°C / 46°F
Humidity Altimeter Pressure
100% 30.21" Hg 1023 hPa